createdAt,value
2019-03-12T00:00:15.273Z,1008.47
2019-03-12T00:01:15.273Z,1008.50
2019-03-12T00:02:15.243Z,1008.56
2019-03-12T00:03:15.228Z,1008.57
2019-03-12T00:04:15.213Z,1008.58
2019-03-12T00:05:15.203Z,1008.52
2019-03-12T00:06:15.184Z,1008.55
2019-03-12T00:07:15.169Z,1008.52
2019-03-12T00:08:15.154Z,1008.61
2019-03-12T00:09:15.140Z,1008.56
2019-03-12T00:10:15.126Z,1008.61
2019-03-12T00:11:15.113Z,1008.62
2019-03-12T00:12:15.095Z,1008.64
2019-03-12T00:13:15.081Z,1008.67
2019-03-12T00:14:15.066Z,1008.61
2019-03-12T00:15:15.052Z,1008.58
2019-03-12T00:16:15.036Z,1008.59
2019-03-12T00:17:15.023Z,1008.57
2019-03-12T00:18:15.008Z,1008.60
2019-03-12T00:19:14.992Z,1008.63
2019-03-12T00:20:14.978Z,1008.65
2019-03-12T00:21:14.966Z,1008.64
2019-03-12T00:22:14.955Z,1008.63
2019-03-12T00:23:14.934Z,1008.63
2019-03-12T00:24:14.919Z,1008.66
2019-03-12T00:25:14.906Z,1008.62
2019-03-12T00:26:14.889Z,1008.58
2019-03-12T00:27:14.875Z,1008.57
2019-03-12T00:28:14.861Z,1008.55
2019-03-12T00:29:14.845Z,1008.54
2019-03-12T00:30:14.830Z,1008.54
2019-03-12T00:31:14.817Z,1008.51
2019-03-12T00:32:14.801Z,1008.51
2019-03-12T00:33:14.791Z,1008.51
2019-03-12T00:34:14.772Z,1008.53
2019-03-12T00:35:14.759Z,1008.53
2019-03-12T00:36:14.742Z,1008.56
2019-03-12T00:37:14.728Z,1008.60
2019-03-12T00:38:14.713Z,1008.62
2019-03-12T00:39:14.701Z,1008.62
2019-03-12T00:40:14.703Z,1008.61
2019-03-12T00:41:14.669Z,1008.58
2019-03-12T00:42:14.657Z,1008.63
2019-03-12T00:43:14.639Z,1008.61
2019-03-12T00:44:14.626Z,1008.59
2019-03-12T00:45:14.615Z,1008.59
2019-03-12T00:46:14.600Z,1008.59
2019-03-12T00:47:14.582Z,1008.55
2019-03-12T00:48:14.567Z,1008.59
2019-03-12T00:49:14.553Z,1008.58
2019-03-12T00:50:14.539Z,1008.57
2019-03-12T00:51:14.524Z,1008.59
2019-03-12T00:52:14.509Z,1008.58
2019-03-12T00:53:14.496Z,1008.55
2019-03-12T00:54:14.481Z,1008.56
2019-03-12T00:55:14.466Z,1008.54
2019-03-12T00:56:14.452Z,1008.51
2019-03-12T00:57:14.439Z,1008.47
2019-03-12T00:58:14.423Z,1008.48
2019-03-12T00:59:14.410Z,1008.48
2019-03-12T01:00:14.395Z,1008.47
2019-03-12T01:01:14.380Z,1008.44
2019-03-12T01:02:14.365Z,1008.41
2019-03-12T01:03:14.350Z,1008.41
2019-03-12T01:04:14.337Z,1008.44
2019-03-12T01:05:14.322Z,1008.46
2019-03-12T01:06:14.308Z,1008.45
2019-03-12T01:07:14.293Z,1008.45
2019-03-12T01:08:14.279Z,1008.40
2019-03-12T01:09:14.264Z,1008.41
2019-03-12T01:10:14.250Z,1008.41
2019-03-12T01:11:14.237Z,1008.38
2019-03-12T01:12:14.221Z,1008.34
2019-03-12T01:13:14.207Z,1008.38
2019-03-12T01:14:14.192Z,1008.32
2019-03-12T01:15:14.179Z,1008.29
2019-03-12T01:16:14.163Z,1008.32
2019-03-12T01:17:14.148Z,1008.28
2019-03-12T01:18:14.179Z,1008.21
2019-03-12T01:19:14.118Z,1008.22
2019-03-12T01:20:14.106Z,1008.20
2019-03-12T01:21:14.090Z,1008.18
2019-03-12T01:22:14.075Z,1008.12
2019-03-12T01:23:14.059Z,1008.16
2019-03-12T01:24:14.045Z,1008.14
2019-03-12T01:25:14.030Z,1008.11
2019-03-12T01:26:14.017Z,1008.07
2019-03-12T01:27:14.001Z,1008.10
2019-03-12T01:28:13.986Z,1008.00
2019-03-12T01:29:13.973Z,1007.98
2019-03-12T01:30:13.958Z,1007.98
2019-03-12T01:31:13.942Z,1007.98
2019-03-12T01:32:13.931Z,1007.96
2019-03-12T01:33:13.914Z,1007.97
2019-03-12T01:34:13.906Z,1007.96
2019-03-12T01:35:13.885Z,1007.96
2019-03-12T01:36:13.871Z,1007.95
2019-03-12T01:37:13.860Z,1007.95
2019-03-12T01:38:13.843Z,1007.94
2019-03-12T01:39:13.830Z,1007.93
2019-03-12T01:40:13.821Z,1007.97
2019-03-12T01:41:13.802Z,1007.97
2019-03-12T01:42:13.789Z,1007.97
2019-03-12T01:43:13.800Z,1007.96
2019-03-12T01:44:13.759Z,1007.93
2019-03-12T01:45:13.746Z,1007.95
2019-03-12T01:46:13.728Z,1007.93
2019-03-12T01:47:13.714Z,1007.92
2019-03-12T01:48:13.701Z,1007.83
2019-03-12T01:49:13.690Z,1007.84
2019-03-12T01:50:13.672Z,1007.80
2019-03-12T01:51:13.657Z,1007.77
2019-03-12T01:52:13.643Z,1007.74
2019-03-12T01:53:13.629Z,1007.76
2019-03-12T01:54:13.615Z,1007.74
2019-03-12T01:55:13.601Z,1007.75
2019-03-12T01:56:13.586Z,1007.75
2019-03-12T01:57:13.575Z,1007.76
2019-03-12T01:58:14.712Z,1007.69
2019-03-12T01:59:13.541Z,1007.67
2019-03-12T02:00:13.528Z,1007.66
2019-03-12T02:01:13.512Z,1007.64
2019-03-12T02:02:13.498Z,1007.61
2019-03-12T02:03:13.484Z,1007.57
2019-03-12T02:04:13.468Z,1007.56
2019-03-12T02:05:13.454Z,1007.56
2019-03-12T02:06:13.441Z,1007.54
2019-03-12T02:07:13.434Z,1007.52
2019-03-12T02:08:13.413Z,1007.48
2019-03-12T02:09:13.395Z,1007.46
2019-03-12T02:10:13.381Z,1007.46
2019-03-12T02:11:13.365Z,1007.46
2019-03-12T02:12:13.351Z,1007.44
2019-03-12T02:13:13.339Z,1007.45
2019-03-12T02:14:13.322Z,1007.42
2019-03-12T02:15:13.306Z,1007.44
2019-03-12T02:16:13.292Z,1007.43
2019-03-12T02:17:13.278Z,1007.36
2019-03-12T02:18:13.264Z,1007.38
2019-03-12T02:19:13.247Z,1007.37
2019-03-12T02:20:13.234Z,1007.29
2019-03-12T02:21:13.218Z,1007.26
2019-03-12T02:22:13.205Z,1007.28
2019-03-12T02:23:13.188Z,1007.29
2019-03-12T02:24:13.175Z,1007.24
2019-03-12T02:25:13.159Z,1007.27
2019-03-12T02:26:13.145Z,1007.24
2019-03-12T02:27:13.129Z,1007.22
2019-03-12T02:28:13.117Z,1007.23
2019-03-12T02:29:13.100Z,1007.28
2019-03-12T02:30:13.087Z,1007.26
2019-03-12T02:31:13.074Z,1007.27
2019-03-12T02:32:13.071Z,1007.23
2019-03-12T02:33:13.041Z,1007.21
2019-03-12T02:34:13.026Z,1007.28
2019-03-12T02:35:13.011Z,1007.26
2019-03-12T02:36:13.003Z,1007.25
2019-03-12T02:37:12.985Z,1007.21
2019-03-12T02:38:12.966Z,1007.22
2019-03-12T02:39:12.951Z,1007.16
2019-03-12T02:40:12.936Z,1007.13
2019-03-12T02:41:12.921Z,1007.12
2019-03-12T02:42:13.148Z,1007.09
2019-03-12T02:43:12.891Z,1007.09
2019-03-12T02:44:12.877Z,1007.11
2019-03-12T02:45:12.866Z,1007.07
2019-03-12T02:46:12.846Z,1007.03
2019-03-12T02:47:12.830Z,1007.08
2019-03-12T02:48:12.815Z,1007.03
2019-03-12T02:49:12.804Z,1006.99
2019-03-12T02:50:12.850Z,1007.03
2019-03-12T02:51:12.771Z,1007.02
2019-03-12T02:52:12.754Z,1007.06
2019-03-12T02:53:12.739Z,1007.08
2019-03-12T02:54:12.729Z,1007.07
2019-03-12T02:55:12.709Z,1007.05
2019-03-12T02:56:12.693Z,1007.04
2019-03-12T02:57:12.679Z,1007.01
2019-03-12T02:58:12.665Z,1006.98
2019-03-12T02:59:12.649Z,1006.97
2019-03-12T03:00:12.634Z,1007.02
2019-03-12T03:01:12.624Z,1006.95
2019-03-12T03:02:12.604Z,1006.93
2019-03-12T03:03:12.589Z,1006.91
2019-03-12T03:04:12.574Z,1006.93
2019-03-12T03:05:12.558Z,1006.92
2019-03-12T03:06:12.545Z,1006.91
2019-03-12T03:07:12.533Z,1006.90
2019-03-12T03:08:12.674Z,1006.84
2019-03-12T03:09:12.505Z,1006.87
2019-03-12T03:10:12.485Z,1006.86
2019-03-12T03:11:12.469Z,1006.86
2019-03-12T03:12:12.453Z,1006.85
2019-03-12T03:13:12.440Z,1006.86
2019-03-12T03:14:12.424Z,1006.84
2019-03-12T03:15:12.408Z,1006.81
2019-03-12T03:16:12.394Z,1006.82
2019-03-12T03:17:12.379Z,1006.80
2019-03-12T03:18:12.364Z,1006.75
2019-03-12T03:19:12.349Z,1006.77
2019-03-12T03:20:12.335Z,1006.73
2019-03-12T03:21:12.325Z,1006.68
2019-03-12T03:22:12.306Z,1006.66
2019-03-12T03:23:12.300Z,1006.63
2019-03-12T03:24:12.282Z,1006.71
2019-03-12T03:25:12.268Z,1006.64
2019-03-12T03:26:12.247Z,1006.61
2019-03-12T03:27:12.231Z,1006.69
2019-03-12T03:28:12.227Z,1006.66
2019-03-12T03:29:12.202Z,1006.64
2019-03-12T03:30:12.193Z,1006.63
2019-03-12T03:31:12.174Z,1006.62
2019-03-12T03:32:12.157Z,1006.62
2019-03-12T03:33:12.149Z,1006.61
2019-03-12T03:34:12.128Z,1006.59
2019-03-12T03:35:12.121Z,1006.59
2019-03-12T03:36:12.097Z,1006.57
2019-03-12T03:37:12.105Z,1006.59
2019-03-12T03:38:12.069Z,1006.57
2019-03-12T03:39:12.053Z,1006.56
2019-03-12T03:40:12.053Z,1006.58
2019-03-12T03:41:12.027Z,1006.56
2019-03-12T03:42:12.010Z,1006.51
2019-03-12T03:43:11.993Z,1006.55
2019-03-12T03:44:11.981Z,1006.50
2019-03-12T03:45:12.007Z,1006.53
2019-03-12T03:46:11.959Z,1006.50
2019-03-12T03:47:11.946Z,1006.48
2019-03-12T03:48:11.930Z,1006.46
2019-03-12T03:49:11.904Z,1006.42
2019-03-12T03:50:11.891Z,1006.40
2019-03-12T03:51:11.883Z,1006.39
2019-03-12T03:52:11.865Z,1006.36
2019-03-12T03:53:11.846Z,1006.35
2019-03-12T03:54:11.830Z,1006.33
2019-03-12T03:55:11.822Z,1006.32
2019-03-12T03:56:11.811Z,1006.28
2019-03-12T03:57:11.787Z,1006.27
2019-03-12T03:58:11.780Z,1006.29
2019-03-12T03:59:11.759Z,1006.28
2019-03-12T04:00:11.744Z,1006.24
2019-03-12T04:01:11.729Z,1006.19
2019-03-12T04:02:11.716Z,1006.18
2019-03-12T04:03:11.700Z,1006.16
2019-03-12T04:04:11.685Z,1006.16
2019-03-12T04:05:11.668Z,1006.14
2019-03-12T04:06:11.656Z,1006.20
2019-03-12T04:07:11.639Z,1006.18
2019-03-12T04:08:11.624Z,1006.17
2019-03-12T04:09:11.611Z,1006.08
2019-03-12T04:10:11.598Z,1006.11
2019-03-12T04:11:11.587Z,1006.09
2019-03-12T04:12:11.567Z,1006.07
2019-03-12T04:13:11.553Z,1006.02
2019-03-12T04:14:11.543Z,1006.04
2019-03-12T04:15:11.524Z,1006.05
2019-03-12T04:16:11.510Z,1006.02
2019-03-12T04:17:11.510Z,1006.07
2019-03-12T04:18:11.480Z,1006.04
2019-03-12T04:19:11.467Z,1006.02
2019-03-12T04:20:11.496Z,1006.07
2019-03-12T04:21:11.440Z,1006.03
2019-03-12T04:22:11.428Z,1006.04
2019-03-12T04:23:11.412Z,1006.01
2019-03-12T04:24:11.395Z,1005.95
2019-03-12T04:25:11.402Z,1005.93
2019-03-12T04:26:11.415Z,1005.94
2019-03-12T04:27:11.377Z,1005.92
2019-03-12T04:28:11.338Z,1005.92
2019-03-12T04:29:11.323Z,1005.93
2019-03-12T04:30:11.309Z,1005.94
2019-03-12T04:31:11.293Z,1005.88
2019-03-12T04:32:11.280Z,1005.84
2019-03-12T04:33:11.264Z,1005.84
2019-03-12T04:34:11.250Z,1005.84
2019-03-12T04:35:11.236Z,1005.81
2019-03-12T04:36:11.221Z,1005.78
2019-03-12T04:37:11.207Z,1005.68
2019-03-12T04:38:11.974Z,1005.68
2019-03-12T04:39:11.178Z,1005.78
2019-03-12T04:40:11.164Z,1005.68
2019-03-12T04:41:11.150Z,1005.65
2019-03-12T04:42:11.136Z,1005.66
2019-03-12T04:43:11.121Z,1005.65
2019-03-12T04:44:11.107Z,1005.66
2019-03-12T04:45:11.093Z,1005.66
2019-03-12T04:46:11.078Z,1005.64
2019-03-12T04:47:11.064Z,1005.65
2019-03-12T04:48:11.054Z,1005.58
2019-03-12T04:49:11.038Z,1005.55
2019-03-12T04:50:11.022Z,1005.56
2019-03-12T04:51:11.009Z,1005.54
2019-03-12T04:52:11.066Z,1005.52
2019-03-12T04:53:10.978Z,1005.52
2019-03-12T04:54:10.964Z,1005.43
2019-03-12T04:55:10.954Z,1005.46
2019-03-12T04:56:10.936Z,1005.41
2019-03-12T04:57:10.921Z,1005.44
2019-03-12T04:58:10.913Z,1005.43
2019-03-12T04:59:10.892Z,1005.39
2019-03-12T05:00:10.880Z,1005.40
2019-03-12T05:01:10.864Z,1005.37
2019-03-12T05:02:10.850Z,1005.36
2019-03-12T05:03:10.835Z,1005.26
2019-03-12T05:04:10.821Z,1005.41
2019-03-12T05:05:10.807Z,1005.45
2019-03-12T05:06:10.795Z,1005.30
2019-03-12T05:07:10.778Z,1005.31
2019-03-12T05:08:10.768Z,1005.32
2019-03-12T05:09:10.750Z,1005.29
2019-03-12T05:10:10.736Z,1005.28
2019-03-12T05:11:10.721Z,1005.32
2019-03-12T05:12:10.707Z,1005.25
2019-03-12T05:13:10.696Z,1005.24
2019-03-12T05:14:10.679Z,1005.25
2019-03-12T05:15:10.666Z,1005.19
2019-03-12T05:16:10.650Z,1005.22
2019-03-12T05:17:10.638Z,1005.25
2019-03-12T05:18:10.623Z,1005.11
2019-03-12T05:19:10.606Z,1005.14
2019-03-12T05:20:10.593Z,1005.02
2019-03-12T05:21:10.579Z,1005.15
2019-03-12T05:22:10.565Z,1005.08
2019-03-12T05:23:10.552Z,1005.07
2019-03-12T05:24:10.536Z,1005.01
2019-03-12T05:25:10.522Z,1005.00
2019-03-12T05:26:10.508Z,1004.97
2019-03-12T05:27:10.498Z,1004.86
2019-03-12T05:28:10.479Z,1004.92
2019-03-12T05:29:10.465Z,1004.88
2019-03-12T05:30:10.451Z,1004.89
2019-03-12T05:31:10.436Z,1004.87
2019-03-12T05:32:10.422Z,1004.83
2019-03-12T05:33:10.408Z,1004.83
2019-03-12T05:34:10.394Z,1004.84
2019-03-12T05:35:10.380Z,1004.83
2019-03-12T05:36:10.366Z,1004.81
2019-03-12T05:37:10.365Z,1004.82
2019-03-12T05:38:10.337Z,1004.74
2019-03-12T05:39:10.323Z,1004.72
2019-03-12T05:40:10.309Z,1004.69
2019-03-12T05:41:12.265Z,1004.67
2019-03-12T05:42:10.282Z,1004.72
2019-03-12T05:43:10.265Z,1004.72
2019-03-12T05:44:10.252Z,1004.67
2019-03-12T05:45:10.250Z,1004.63
2019-03-12T05:46:10.226Z,1004.71
2019-03-12T05:47:10.209Z,1004.66
2019-03-12T05:48:10.195Z,1004.69
2019-03-12T05:49:10.180Z,1004.64
2019-03-12T05:50:10.168Z,1004.62
2019-03-12T05:51:10.151Z,1004.59
2019-03-12T05:52:10.138Z,1004.54
2019-03-12T05:53:10.133Z,1004.62
2019-03-12T05:54:10.110Z,1004.70
2019-03-12T05:55:10.096Z,1004.58
2019-03-12T05:56:10.082Z,1004.56
2019-03-12T05:57:10.073Z,1004.57
2019-03-12T05:58:10.138Z,1004.50
2019-03-12T05:59:10.040Z,1004.52
2019-03-12T06:00:10.026Z,1004.52
2019-03-12T06:01:10.012Z,1004.51
2019-03-12T06:02:09.998Z,1004.50
2019-03-12T06:03:09.986Z,1004.55
2019-03-12T06:04:09.970Z,1004.51
2019-03-12T06:05:09.956Z,1004.49
2019-03-12T06:06:09.942Z,1004.45
2019-03-12T06:07:09.927Z,1004.47
2019-03-12T06:08:09.985Z,1004.46
2019-03-12T06:09:09.900Z,1004.43
2019-03-12T06:10:09.886Z,1004.41
2019-03-12T06:11:09.872Z,1004.43
2019-03-12T06:12:09.859Z,1004.39
2019-03-12T06:13:09.845Z,1004.41
2019-03-12T06:14:09.831Z,1004.39
2019-03-12T06:15:09.818Z,1004.46
2019-03-12T06:16:09.803Z,1004.44
2019-03-12T06:17:09.791Z,1004.35
2019-03-12T06:18:09.783Z,1004.31
2019-03-12T06:19:09.764Z,1004.27
2019-03-12T06:20:09.750Z,1004.22
2019-03-12T06:21:09.738Z,1004.22
2019-03-12T06:22:11.711Z,1004.28
2019-03-12T06:23:09.707Z,1004.21
2019-03-12T06:24:09.694Z,1004.20
2019-03-12T06:25:09.688Z,1004.18
2019-03-12T06:26:09.669Z,1004.22
2019-03-12T06:27:09.653Z,1004.15
2019-03-12T06:28:09.640Z,1004.24
2019-03-12T06:29:09.658Z,1004.23
2019-03-12T06:30:09.613Z,1004.22
2019-03-12T06:31:09.598Z,1004.23
2019-03-12T06:32:09.585Z,1004.24
2019-03-12T06:33:09.571Z,1004.19
2019-03-12T06:34:09.561Z,1004.18
2019-03-12T06:35:09.544Z,1004.22
2019-03-12T06:36:09.531Z,1004.18
2019-03-12T06:37:09.559Z,1004.20
2019-03-12T06:38:09.506Z,1004.23
2019-03-12T06:39:09.490Z,1004.21
2019-03-12T06:40:09.478Z,1004.16
2019-03-12T06:41:09.469Z,1004.10
2019-03-12T06:42:09.452Z,1004.12
2019-03-12T06:43:09.436Z,1004.07
2019-03-12T06:44:09.425Z,1004.07
2019-03-12T06:45:09.412Z,1004.13
2019-03-12T06:46:09.399Z,1004.05
2019-03-12T06:47:09.382Z,1004.04
2019-03-12T06:48:09.373Z,1004.03
2019-03-12T06:49:09.356Z,1004.06
2019-03-12T06:50:09.348Z,1004.02
2019-03-12T06:51:09.327Z,1004.00
2019-03-12T06:52:09.314Z,1003.98
2019-03-12T06:53:09.302Z,1003.90
2019-03-12T06:54:09.287Z,1003.90
2019-03-12T06:55:09.274Z,1003.95
2019-03-12T06:56:09.263Z,1003.87
2019-03-12T06:57:09.249Z,1003.82
2019-03-12T06:58:09.235Z,1003.84
2019-03-12T06:59:09.220Z,1003.67
2019-03-12T07:00:09.207Z,1003.68
2019-03-12T07:01:09.193Z,1003.66
2019-03-12T07:02:09.184Z,1003.65
2019-03-12T07:03:09.166Z,1003.63
2019-03-12T07:04:09.153Z,1003.65
2019-03-12T07:05:09.140Z,1003.61
2019-03-12T07:06:09.128Z,1003.72
2019-03-12T07:07:11.519Z,1003.63
2019-03-12T07:08:09.100Z,1003.56
2019-03-12T07:09:09.087Z,1003.63
2019-03-12T07:10:09.074Z,1003.50
2019-03-12T07:11:09.060Z,1003.58
2019-03-12T07:12:09.047Z,1003.56
2019-03-12T07:13:09.034Z,1003.52
2019-03-12T07:14:09.020Z,1003.50
2019-03-12T07:15:09.008Z,1003.60
2019-03-12T07:16:08.994Z,1003.50
2019-03-12T07:17:08.985Z,1003.47
2019-03-12T07:18:08.969Z,1003.43
2019-03-12T07:19:08.953Z,1003.36
2019-03-12T07:20:08.942Z,1003.36
2019-03-12T07:21:08.926Z,1003.38
2019-03-12T07:22:08.918Z,1003.27
2019-03-12T07:23:08.899Z,1003.32
2019-03-12T07:24:08.886Z,1003.34
2019-03-12T07:25:08.874Z,1003.28
2019-03-12T07:26:08.860Z,1003.26
2019-03-12T07:27:08.848Z,1003.22
2019-03-12T07:28:08.833Z,1003.23
2019-03-12T07:29:08.821Z,1003.22
2019-03-12T07:30:08.809Z,1003.18
2019-03-12T07:31:08.879Z,1003.12
2019-03-12T07:32:08.896Z,1003.00
2019-03-12T07:33:08.778Z,1002.99
2019-03-12T07:34:08.754Z,1002.96
2019-03-12T07:35:08.741Z,1002.91
2019-03-12T07:36:08.728Z,1002.90
2019-03-12T07:37:08.715Z,1002.84
2019-03-12T07:38:08.705Z,1002.82
2019-03-12T07:39:08.688Z,1002.85
2019-03-12T07:40:08.675Z,1002.87
2019-03-12T07:41:08.668Z,1002.95
2019-03-12T07:42:08.652Z,1002.82
2019-03-12T07:43:08.636Z,1002.83
2019-03-12T07:44:08.623Z,1002.78
2019-03-12T07:45:08.611Z,1002.74
2019-03-12T07:46:08.605Z,1002.76
2019-03-12T07:47:08.585Z,1002.78
2019-03-12T07:48:08.573Z,1002.63
2019-03-12T07:49:08.562Z,1002.68
2019-03-12T07:50:08.546Z,1002.70
2019-03-12T07:51:08.536Z,1002.61
2019-03-12T07:52:08.942Z,1002.54
2019-03-12T07:53:08.508Z,1002.58
2019-03-12T07:54:08.495Z,1002.47
2019-03-12T07:55:08.484Z,1002.55
2019-03-12T07:56:08.469Z,1002.49
2019-03-12T07:57:08.458Z,1002.51
2019-03-12T07:58:08.444Z,1002.45
2019-03-12T07:59:09.176Z,1002.48
2019-03-12T08:00:10.030Z,1002.41
2019-03-12T08:01:08.407Z,1002.49
2019-03-12T08:02:08.393Z,1002.49
2019-03-12T08:03:08.379Z,1002.44
2019-03-12T08:04:08.368Z,1002.33
2019-03-12T08:05:08.356Z,1002.35
2019-03-12T08:06:08.345Z,1002.39
2019-03-12T08:07:08.333Z,1002.35
2019-03-12T08:08:08.318Z,1002.37
2019-03-12T08:09:08.303Z,1002.26
2019-03-12T08:10:08.291Z,1002.37
2019-03-12T08:11:08.301Z,1002.26
2019-03-12T08:12:08.266Z,1002.24
2019-03-12T08:13:08.254Z,1002.22
2019-03-12T08:14:08.243Z,1002.11
2019-03-12T08:15:08.245Z,1002.20
2019-03-12T08:16:08.217Z,1002.17
2019-03-12T08:17:08.207Z,1002.13
2019-03-12T08:18:08.191Z,1002.12
2019-03-12T08:19:08.177Z,1002.10
2019-03-12T08:20:10.646Z,1002.14
2019-03-12T08:21:21.476Z,1002.11
2019-03-12T08:22:08.140Z,1002.03
2019-03-12T08:23:08.127Z,1002.05
2019-03-12T08:24:08.115Z,1001.95
2019-03-12T08:25:08.102Z,1001.99
2019-03-12T08:26:08.091Z,1001.97
2019-03-12T08:27:08.077Z,1001.92
2019-03-12T08:28:08.064Z,1001.92
2019-03-12T08:29:08.052Z,1001.86
2019-03-12T08:30:08.040Z,1001.83
2019-03-12T08:31:08.027Z,1001.74
2019-03-12T08:32:08.015Z,1001.82
2019-03-12T08:33:08.003Z,1001.81
2019-03-12T08:34:07.991Z,1001.77
2019-03-12T08:35:07.978Z,1001.75
2019-03-12T08:36:08.074Z,1001.75
2019-03-12T08:37:07.955Z,1001.73
2019-03-12T08:38:07.942Z,1001.69
2019-03-12T08:39:07.930Z,1001.64
2019-03-12T08:40:07.918Z,1001.74
2019-03-12T08:41:07.906Z,1001.71
2019-03-12T08:42:07.894Z,1001.72
2019-03-12T08:43:07.887Z,1001.66
2019-03-12T08:44:07.871Z,1001.53
2019-03-12T08:45:11.163Z,1001.65
2019-03-12T08:46:07.847Z,1001.62
2019-03-12T08:47:07.837Z,1001.64
2019-03-12T08:48:07.824Z,1001.58
2019-03-12T08:49:07.811Z,1001.57
2019-03-12T08:50:07.801Z,1001.57
2019-03-12T08:51:07.787Z,1001.53
2019-03-12T08:52:07.826Z,1001.54
2019-03-12T08:53:07.765Z,1001.53
2019-03-12T08:54:07.753Z,1001.47
2019-03-12T08:55:07.742Z,1001.41
2019-03-12T08:56:07.738Z,1001.35
2019-03-12T08:57:07.719Z,1001.31
2019-03-12T08:58:07.713Z,1001.26
2019-03-12T08:59:07.694Z,1001.29
2019-03-12T09:00:07.686Z,1001.22
2019-03-12T09:01:07.671Z,1001.17
2019-03-12T09:02:07.663Z,1001.20
2019-03-12T09:03:07.647Z,1001.07
2019-03-12T09:04:07.636Z,1001.15
2019-03-12T09:05:07.627Z,1001.13
2019-03-12T09:06:07.615Z,1001.05
2019-03-12T09:07:07.604Z,1001.04
2019-03-12T09:08:07.589Z,1000.99
2019-03-12T09:09:07.586Z,1001.00
2019-03-12T09:10:07.619Z,1001.04
2019-03-12T09:11:07.553Z,1000.83
2019-03-12T09:12:07.541Z,1000.89
2019-03-12T09:13:07.533Z,1000.90
2019-03-12T09:14:07.519Z,1000.84
2019-03-12T09:15:07.507Z,1000.79
2019-03-12T09:16:07.494Z,1000.83
2019-03-12T09:17:07.484Z,1000.76
2019-03-12T09:18:07.474Z,1000.69
2019-03-12T09:19:07.463Z,1000.83
2019-03-12T09:20:07.445Z,1000.72
2019-03-12T09:21:07.434Z,1000.72
2019-03-12T09:22:07.422Z,1000.63
2019-03-12T09:23:07.409Z,1000.76
2019-03-12T09:24:07.398Z,1000.62
2019-03-12T09:25:07.386Z,1000.64
2019-03-12T09:26:07.374Z,1000.61
2019-03-12T09:27:07.373Z,1000.50
2019-03-12T09:28:07.352Z,1000.49
2019-03-12T09:29:07.341Z,1000.48
2019-03-12T09:30:07.329Z,1000.41
2019-03-12T09:31:07.316Z,1000.43
2019-03-12T09:32:07.305Z,1000.49
2019-03-12T09:33:07.294Z,1000.41
2019-03-12T09:34:07.283Z,1000.41
2019-03-12T09:35:07.270Z,1000.40
2019-03-12T09:36:07.259Z,1000.30
2019-03-12T09:37:07.250Z,1000.27
2019-03-12T09:38:07.238Z,1000.28
2019-03-12T09:39:07.224Z,1000.31
2019-03-12T09:40:07.214Z,1000.19
2019-03-12T09:41:07.204Z,1000.13
2019-03-12T09:42:07.196Z,1000.01
2019-03-12T09:43:07.184Z,1000.05
2019-03-12T09:44:07.172Z,1000.09
2019-03-12T09:45:07.162Z,1000.13
2019-03-12T09:46:07.150Z,1000.15
2019-03-12T09:47:07.140Z,1000.08
2019-03-12T09:48:07.129Z,999.97
2019-03-12T09:49:07.120Z,1000.00
2019-03-12T09:50:07.108Z,999.94
2019-03-12T09:51:07.097Z,999.87
2019-03-12T09:52:07.088Z,1000.02
2019-03-12T09:53:07.081Z,999.84
2019-03-12T09:54:07.072Z,999.89
2019-03-12T09:55:07.061Z,999.81
2019-03-12T09:56:07.087Z,999.89
2019-03-12T09:57:07.039Z,999.78
2019-03-12T09:58:07.030Z,999.83
2019-03-12T09:59:07.023Z,999.82
2019-03-12T10:00:15.994Z,999.83
2019-03-12T10:01:07.003Z,999.81
2019-03-12T10:02:06.995Z,999.74
2019-03-12T10:03:07.000Z,999.72
2019-03-12T10:04:07.023Z,999.72
2019-03-12T10:05:06.986Z,999.65
2019-03-12T10:06:06.960Z,999.60
2019-03-12T10:07:06.951Z,999.57
2019-03-12T10:08:06.942Z,999.58
2019-03-12T10:09:06.936Z,999.52
2019-03-12T10:10:06.926Z,999.35
2019-03-12T10:11:06.917Z,999.37
2019-03-12T10:12:06.907Z,999.29
2019-03-12T10:13:06.897Z,999.38
2019-03-12T10:14:06.893Z,999.36
2019-03-12T10:15:06.882Z,999.17
2019-03-12T10:16:06.869Z,999.16
2019-03-12T10:17:06.862Z,999.11
2019-03-12T10:18:06.852Z,999.10
2019-03-12T10:19:06.841Z,999.10
2019-03-12T10:20:06.834Z,999.12
2019-03-12T10:21:06.823Z,999.04
2019-03-12T10:22:06.814Z,999.08
2019-03-12T10:23:06.803Z,998.96
2019-03-12T10:24:06.794Z,998.94
2019-03-12T10:25:06.787Z,998.78
2019-03-12T10:26:06.777Z,998.86
2019-03-12T10:27:06.766Z,998.79
2019-03-12T10:28:06.758Z,998.82
2019-03-12T10:29:06.747Z,998.73
2019-03-12T10:30:06.738Z,998.78
2019-03-12T10:31:06.728Z,998.88
2019-03-12T10:32:06.723Z,998.61
2019-03-12T10:33:06.753Z,998.62
2019-03-12T10:34:06.699Z,998.65
2019-03-12T10:35:06.689Z,998.59
2019-03-12T10:36:06.767Z,998.67
2019-03-12T10:37:11.974Z,998.57
2019-03-12T10:38:06.661Z,998.51
2019-03-12T10:39:06.650Z,998.55
2019-03-12T10:40:06.642Z,998.49
2019-03-12T10:41:06.631Z,998.40
2019-03-12T10:42:06.622Z,998.33
2019-03-12T10:43:06.611Z,998.41
2019-03-12T10:44:06.675Z,998.27
2019-03-12T10:45:06.592Z,998.30
2019-03-12T10:46:06.583Z,998.18
2019-03-12T10:47:06.573Z,998.26
2019-03-12T10:48:06.564Z,998.26
2019-03-12T10:49:06.555Z,998.11
2019-03-12T10:50:06.545Z,998.14
2019-03-12T10:51:06.536Z,998.29
2019-03-12T10:52:06.527Z,998.16
2019-03-12T10:53:06.518Z,998.19
2019-03-12T10:54:06.509Z,998.23
2019-03-12T10:55:12.903Z,998.17
2019-03-12T10:56:06.491Z,998.03
2019-03-12T10:57:06.483Z,998.08
2019-03-12T10:58:06.473Z,997.97
2019-03-12T10:59:06.463Z,998.03
2019-03-12T11:00:06.455Z,997.99
2019-03-12T11:01:06.446Z,997.98
2019-03-12T11:02:06.438Z,998.01
2019-03-12T11:03:06.429Z,997.95
2019-03-12T11:04:06.420Z,997.96
2019-03-12T11:05:06.412Z,997.99
2019-03-12T11:06:06.403Z,997.77
2019-03-12T11:07:15.812Z,997.85
2019-03-12T11:08:06.971Z,997.90
2019-03-12T11:09:06.378Z,997.59
2019-03-12T11:10:06.369Z,997.70
2019-03-12T11:11:06.364Z,997.76
2019-03-12T11:12:06.352Z,997.71
2019-03-12T11:13:06.346Z,997.94
2019-03-12T11:14:06.336Z,997.77
2019-03-12T11:15:06.326Z,997.70
2019-03-12T11:16:06.318Z,997.66
2019-03-12T11:17:06.311Z,997.80
2019-03-12T11:18:06.301Z,997.75
2019-03-12T11:19:06.293Z,997.56
2019-03-12T11:20:06.284Z,997.67
2019-03-12T11:21:06.275Z,997.66
2019-03-12T11:22:06.267Z,997.56
2019-03-12T11:23:06.258Z,997.47
2019-03-12T11:24:06.251Z,997.51
2019-03-12T11:25:06.243Z,997.32
2019-03-12T11:26:06.232Z,997.38
2019-03-12T11:27:06.223Z,997.37
2019-03-12T11:28:06.214Z,997.37
2019-03-12T11:29:06.206Z,997.40
2019-03-12T11:30:06.198Z,997.34
2019-03-12T11:31:06.197Z,997.24
2019-03-12T11:32:06.181Z,997.29
2019-03-12T11:33:06.172Z,997.17
2019-03-12T11:34:06.164Z,997.29
2019-03-12T11:35:06.159Z,997.04
2019-03-12T11:36:06.157Z,997.20
2019-03-12T11:37:06.153Z,997.23
2019-03-12T11:38:06.154Z,997.05
2019-03-12T11:39:06.148Z,997.11
2019-03-12T11:40:06.118Z,997.14
2019-03-12T11:41:06.167Z,997.06
2019-03-12T11:42:06.102Z,996.88
2019-03-12T11:43:06.103Z,997.00
2019-03-12T11:44:06.091Z,996.92
2019-03-12T11:45:13.789Z,996.80
2019-03-12T11:46:06.077Z,996.90
2019-03-12T11:47:06.064Z,996.79
2019-03-12T11:48:06.056Z,996.87
2019-03-12T11:49:06.049Z,996.64
2019-03-12T11:50:06.047Z,996.75
2019-03-12T11:51:06.314Z,996.55
2019-03-12T11:52:06.027Z,996.68
2019-03-12T11:53:06.019Z,996.65
2019-03-12T11:54:06.009Z,996.65
2019-03-12T11:55:06.035Z,996.48
2019-03-12T11:56:05.989Z,996.55
2019-03-12T11:57:05.980Z,996.48
2019-03-12T11:58:05.971Z,996.42
2019-03-12T11:59:05.961Z,996.49
2019-03-12T12:00:05.983Z,996.19
2019-03-12T12:01:06.006Z,996.46
2019-03-12T12:02:05.933Z,996.59
2019-03-12T12:03:05.926Z,996.38
2019-03-12T12:04:05.914Z,996.39
2019-03-12T12:05:05.906Z,996.35
2019-03-12T12:06:05.905Z,996.37
2019-03-12T12:07:05.953Z,996.25
2019-03-12T12:08:05.877Z,996.26
2019-03-12T12:09:05.867Z,996.18
2019-03-12T12:10:05.858Z,996.30